createdAt,value
2019-04-16T00:03:44.427Z,20.20
2019-04-16T00:08:57.261Z,20.45
2019-04-16T00:14:04.494Z,21.70
2019-04-16T00:19:06.866Z,19.05
2019-04-16T00:24:18.553Z,21.20
2019-04-16T00:29:21.597Z,20.25
2019-04-16T00:34:23.669Z,18.85
2019-04-16T00:39:26.499Z,22.13
2019-04-16T00:44:28.829Z,24.18
2019-04-16T00:49:30.873Z,21.62
2019-04-16T00:54:32.919Z,18.52
2019-04-16T00:59:35.033Z,22.05
2019-04-16T01:04:37.154Z,22.07
2019-04-16T01:09:39.238Z,20.40
2019-04-16T01:14:41.663Z,20.27
2019-04-16T01:19:43.710Z,20.35
2019-04-16T01:24:45.809Z,17.77
2019-04-16T01:29:47.851Z,25.37
2019-04-16T01:35:08.448Z,21.15
2019-04-16T01:40:11.719Z,21.68
2019-04-16T01:45:13.826Z,19.67
2019-04-16T01:50:16.160Z,19.98
2019-04-16T01:55:18.583Z,19.57
2019-04-16T02:00:20.757Z,18.55
2019-04-16T02:05:23.282Z,20.70
2019-04-16T02:10:26.023Z,20.77
2019-04-16T02:15:28.167Z,17.82
2019-04-16T02:20:30.183Z,20.08
2019-04-16T02:25:32.293Z,17.17
2019-04-16T02:30:39.390Z,18.25
2019-04-16T02:35:38.713Z,21.57
2019-04-16T02:40:40.732Z,20.95
2019-04-16T02:45:43.479Z,18.00
2019-04-16T02:50:52.327Z,17.55
2019-04-16T02:56:02.409Z,18.95
2019-04-16T03:01:39.616Z,18.92
2019-04-16T03:06:41.638Z,19.25
2019-04-16T03:11:48.003Z,20.62
2019-04-16T03:17:10.670Z,20.62
2019-04-16T03:22:11.158Z,20.82
2019-04-16T03:27:13.364Z,19.70
2019-04-16T03:32:15.776Z,17.45
2019-04-16T03:37:17.955Z,18.98
2019-04-16T03:42:20.367Z,20.88
2019-04-16T03:47:22.527Z,21.52
2019-04-16T03:52:24.599Z,19.95
2019-04-16T03:57:26.667Z,20.65
2019-04-16T04:02:28.685Z,20.25
2019-04-16T04:07:30.769Z,22.65
2019-04-16T04:12:32.876Z,18.70
2019-04-16T04:17:35.765Z,19.05
2019-04-16T04:22:39.319Z,22.70
2019-04-16T04:27:43.570Z,20.95
2019-04-16T04:32:47.510Z,17.80
2019-04-16T04:37:49.772Z,23.42
2019-04-16T04:42:51.827Z,19.82
2019-04-16T04:47:53.885Z,21.37
2019-04-16T04:52:56.072Z,19.80
2019-04-16T04:58:02.490Z,19.95
2019-04-16T05:03:03.131Z,17.52
2019-04-16T05:08:05.251Z,19.55
2019-04-16T05:13:07.503Z,19.55
2019-04-16T05:18:10.795Z,19.98
2019-04-16T05:23:12.942Z,23.35
2019-04-16T05:28:15.378Z,20.60
2019-04-16T05:33:17.763Z,19.98
2019-04-16T05:38:20.437Z,20.68
2019-04-16T05:43:24.142Z,18.23
2019-04-16T05:48:26.418Z,19.50
2019-04-16T05:53:28.690Z,20.02
2019-04-16T05:58:31.611Z,25.02
2019-04-16T06:03:34.330Z,29.95
2019-04-16T06:08:40.661Z,23.40
2019-04-16T06:13:50.113Z,25.68
2019-04-16T06:19:11.588Z,21.50
2019-04-16T06:24:35.767Z,19.05
2019-04-16T06:30:05.425Z,21.80
2019-04-16T06:35:43.474Z,19.42
2019-04-16T06:41:03.419Z,21.65
2019-04-16T06:46:40.606Z,21.33
2019-04-16T06:52:05.180Z,17.85
2019-04-16T06:57:27.007Z,21.97
2019-04-16T07:03:02.119Z,21.85
2019-04-16T07:08:18.433Z,21.85
2019-04-16T07:13:21.111Z,22.37
2019-04-16T07:18:23.226Z,22.58
2019-04-16T07:23:25.807Z,23.12
2019-04-16T07:28:36.571Z,18.77
2019-04-16T07:34:16.770Z,23.05
2019-04-16T07:39:37.194Z,21.12
2019-04-16T07:44:55.964Z,19.05
2019-04-16T07:50:02.525Z,21.05
2019-04-16T07:55:19.365Z,24.40
2019-04-16T08:00:21.853Z,27.98
2019-04-16T08:05:23.958Z,20.82
2019-04-16T08:10:26.928Z,19.48
2019-04-16T08:15:29.394Z,21.05
2019-04-16T08:20:31.953Z,19.90
2019-04-16T08:25:34.970Z,23.00
2019-04-16T08:30:39.524Z,23.60
2019-04-16T08:35:41.505Z,20.25
2019-04-16T08:40:46.246Z,23.45
2019-04-16T08:45:49.288Z,20.17
2019-04-16T08:50:51.474Z,24.85
2019-04-16T08:55:53.634Z,22.82
2019-04-16T09:00:55.889Z,19.62
2019-04-16T09:06:03.597Z,16.97
2019-04-16T09:11:04.891Z,23.25
2019-04-16T09:16:10.282Z,23.02
2019-04-16T09:21:13.662Z,21.77
2019-04-16T09:26:34.627Z,22.42
2019-04-16T09:31:55.013Z,19.55
2019-04-16T09:37:13.324Z,20.57
2019-04-16T09:42:15.454Z,20.95
2019-04-16T09:47:17.520Z,22.50
2019-04-16T09:52:23.203Z,19.15
2019-04-16T09:57:24.511Z,22.90
2019-04-16T10:02:30.070Z,21.30
2019-04-16T10:07:32.188Z,20.50
2019-04-16T10:12:34.345Z,20.20
2019-04-16T10:17:36.447Z,24.47
2019-04-16T10:22:38.684Z,21.82
2019-04-16T10:27:56.722Z,21.48
2019-04-16T10:32:58.927Z,20.88
2019-04-16T10:38:08.172Z,19.70
2019-04-16T10:43:43.663Z,16.77
2019-04-16T10:48:51.306Z,19.05
2019-04-16T10:53:59.945Z,17.50
2019-04-16T10:59:24.875Z,16.25
2019-04-16T11:04:47.759Z,16.67
2019-04-16T11:09:50.622Z,17.15
2019-04-16T11:14:52.812Z,18.50
2019-04-16T11:19:55.059Z,15.53
2019-04-16T11:24:57.166Z,14.47
2019-04-16T11:29:59.208Z,15.90
2019-04-16T11:35:01.320Z,17.60
2019-04-16T11:40:04.567Z,21.48
2019-04-16T11:45:06.973Z,19.15
2019-04-16T11:50:09.126Z,16.75
2019-04-16T11:55:11.372Z,15.25
2019-04-16T12:00:18.610Z,14.85
2019-04-16T12:05:29.504Z,14.70
2019-04-16T12:11:00.209Z,16.07
2019-04-16T12:16:21.275Z,14.30
2019-04-16T12:21:43.210Z,16.17
2019-04-16T12:27:11.322Z,15.13
2019-04-16T12:32:51.436Z,15.15
2019-04-16T12:38:25.056Z,13.88
2019-04-16T12:43:32.858Z,15.65
2019-04-16T12:48:52.921Z,14.87
2019-04-16T12:54:14.272Z,13.58
2019-04-16T12:59:22.996Z,14.10
2019-04-16T13:04:51.654Z,14.95
2019-04-16T13:10:11.223Z,15.15
2019-04-16T13:15:36.845Z,13.83
2019-04-16T13:21:10.797Z,11.80
2019-04-16T13:26:37.539Z,14.58
2019-04-16T13:31:39.846Z,11.35
2019-04-16T13:36:42.268Z,12.13
2019-04-16T13:41:44.322Z,14.38
2019-04-16T13:46:46.415Z,18.17
2019-04-16T13:51:48.502Z,21.75
2019-04-16T13:56:56.074Z,17.60
2019-04-16T14:02:29.285Z,19.75
2019-04-16T14:07:33.349Z,16.23
2019-04-16T14:12:42.399Z,20.92
2019-04-16T14:17:51.732Z,18.32
2019-04-16T14:22:43.826Z,20.60
2019-04-16T14:27:45.910Z,19.10
2019-04-16T14:32:48.844Z,17.25
2019-04-16T14:37:50.976Z,19.40
2019-04-16T14:42:57.415Z,18.00
2019-04-16T14:47:57.799Z,17.35
2019-04-16T14:52:59.833Z,16.80
2019-04-16T14:58:04.312Z,17.10
2019-04-16T15:03:18.161Z,16.80
2019-04-16T15:08:33.735Z,18.65
2019-04-16T15:13:47.156Z,16.85
2019-04-16T15:19:07.551Z,18.07
2019-04-16T15:24:38.600Z,19.12
2019-04-16T15:29:58.168Z,17.90
2019-04-16T15:35:00.566Z,18.00
2019-04-16T15:40:08.061Z,15.63
2019-04-16T15:45:18.008Z,19.32
2019-04-16T15:50:35.091Z,17.75
2019-04-16T15:55:48.746Z,16.20
2019-04-16T16:01:15.849Z,16.65
2019-04-16T16:06:21.549Z,18.20
2019-04-16T16:11:48.007Z,19.07
2019-04-16T16:16:50.769Z,19.55
2019-04-16T16:21:53.634Z,19.32
2019-04-16T16:26:55.646Z,18.15
2019-04-16T16:31:57.673Z,18.45
2019-04-16T16:37:00.152Z,18.10
2019-04-16T16:42:02.213Z,17.27
2019-04-16T16:47:39.558Z,15.93
2019-04-16T16:52:59.890Z,20.55
2019-04-16T16:58:25.090Z,23.07
2019-04-16T17:03:56.405Z,20.27
2019-04-16T17:08:58.831Z,20.30
2019-04-16T17:14:02.000Z,27.58
2019-04-16T17:19:04.902Z,27.52
2019-04-16T17:24:06.979Z,25.68
2019-04-16T17:29:09.228Z,25.32
2019-04-16T17:34:11.464Z,23.20
2019-04-16T17:39:28.432Z,25.30
2019-04-16T17:44:51.006Z,27.32
2019-04-16T17:50:02.506Z,23.85
2019-04-16T17:55:07.178Z,29.05
2019-04-16T18:00:42.029Z,26.35
2019-04-16T18:06:02.235Z,26.48
2019-04-16T18:11:10.835Z,24.43
2019-04-16T18:16:31.469Z,26.52
2019-04-16T18:21:55.931Z,22.52
2019-04-16T18:27:16.849Z,24.65
2019-04-16T18:32:41.305Z,25.12
2019-04-16T18:37:59.053Z,24.45
2019-04-16T18:43:10.590Z,23.50
2019-04-16T18:48:17.287Z,22.27
2019-04-16T18:53:19.913Z,14.30
2019-04-16T18:58:22.228Z,11.57
2019-04-16T19:03:24.321Z,9.85
2019-04-16T19:08:40.903Z,9.00
2019-04-16T19:13:31.555Z,9.68
2019-04-16T19:18:33.681Z,9.38
2019-04-16T19:23:35.837Z,10.35
2019-04-16T19:28:39.591Z,7.58
2019-04-16T19:33:42.138Z,6.35
2019-04-16T19:38:45.368Z,5.90
2019-04-16T19:43:48.981Z,9.48
2019-04-16T19:48:51.098Z,6.28
2019-04-16T19:53:53.201Z,6.22
2019-04-16T19:58:55.354Z,8.83
2019-04-16T20:03:57.440Z,6.45
2019-04-16T20:08:59.566Z,5.92
2019-04-16T20:14:03.499Z,5.67
2019-04-16T20:19:05.809Z,5.00
2019-04-16T20:24:07.921Z,5.67
2019-04-16T20:29:10.071Z,8.08
2019-04-16T20:34:13.200Z,5.25
2019-04-16T20:39:15.459Z,4.67
2019-04-16T20:44:18.316Z,5.58
2019-04-16T20:49:21.162Z,6.30
2019-04-16T20:54:23.540Z,4.47
2019-04-16T20:59:32.780Z,4.12
2019-04-16T21:04:34.892Z,4.45
2019-04-16T21:09:37.013Z,5.87
2019-04-16T21:14:39.302Z,4.50
2019-04-16T21:19:46.501Z,5.30
2019-04-16T21:24:48.682Z,6.33
2019-04-16T21:29:50.991Z,4.45
2019-04-16T21:34:58.644Z,5.40
2019-04-16T21:40:00.421Z,6.97
2019-04-16T21:46:00.519Z,5.28
2019-04-16T21:51:02.615Z,5.70
2019-04-16T21:56:07.833Z,4.87
2019-04-16T22:01:35.750Z,4.97
2019-04-16T22:06:36.895Z,5.22
2019-04-16T22:11:43.256Z,5.58
2019-04-16T22:16:42.895Z,5.35
2019-04-16T22:21:44.974Z,5.25
2019-04-16T22:26:47.011Z,4.35
2019-04-16T22:31:49.326Z,5.55
2019-04-16T22:36:51.363Z,5.83
2019-04-16T22:42:05.034Z,5.40
2019-04-16T22:47:13.316Z,4.75
2019-04-16T22:52:15.459Z,5.87
2019-04-16T22:57:17.475Z,4.35
2019-04-16T23:02:22.142Z,4.12
2019-04-16T23:07:24.324Z,4.83
2019-04-16T23:12:28.067Z,4.17
2019-04-16T23:17:30.272Z,4.47
2019-04-16T23:22:33.569Z,3.47
2019-04-16T23:27:37.496Z,4.03
2019-04-16T23:32:40.135Z,4.17
2019-04-16T23:37:42.184Z,3.20
2019-04-16T23:43:06.993Z,4.45
2019-04-16T23:48:31.658Z,4.22
2019-04-16T23:53:59.570Z,3.60
2019-04-16T23:59:09.112Z,2.92
